Meteorología y climatología de Navarra
Datos de la estación - Meteo Navarra

Estación de Etxarri-Aranatz GN

Altitud 505 m.


Datos desde el 15/01/2020 hasta el 16/01/2020 en horario solar
Los datos son PROVISIONALES

Anterior Página 1 de 1 Siguiente Descargar: Formato para Excel 2000 o superior   Formato csv   Formato para OpenOffice Calc
Fecha Temperatura Humedad relativa Radiación global Insolación Precipitación Vel. viento 10 m Vel. viento 10 m Dir. viento 10 m
ºC % W/m² s l/m² m/s km/h º
15/01/2020 0:00 5.6 66 0.0 0 0.0 7.9 28.5 167
15/01/2020 0:10 5.7 66 0.0 0 0.0 6.9 25.0 170
15/01/2020 0:20 5.7 66 0.0 0 0.0 5.4 19.3 150
15/01/2020 0:30 5.5 66 0.0 0 0.0 4.5 16.3 158
15/01/2020 0:40 5.6 67 0.0 0 0.0 5.3 19.0 168
15/01/2020 0:50 5.4 67 0.0 0 0.0 5.4 19.3 164
15/01/2020 1:00 5.3 67 0.0 0 0.0 7.0 25.3 166
15/01/2020 1:10 5.3 68 0.0 0 0.0 6.7 24.3 168
15/01/2020 1:20 5.3 67 0.0 0 0.0 5.2 18.7 163
15/01/2020 1:30 5.4 66 0.0 0 0.0 2.5 9.0 139
15/01/2020 1:40 5.5 66 0.0 0 0.0 3.8 13.5 277
15/01/2020 1:50 5.4 67 0.0 0 0.0 4.7 16.7 166
15/01/2020 2:00 5.5 67 0.0 0 0.0 4.9 17.8 171
15/01/2020 2:10 5.4 68 0.0 0 0.0 5.8 20.7 181
15/01/2020 2:20 5.6 67 0.0 0 0.0 5.6 20.1 178
15/01/2020 2:30 5.7 67 0.0 0 0.0 5.0 18.1 179
15/01/2020 2:40 5.6 67 0.0 0 0.0 5.4 19.4 174
15/01/2020 2:50 5.6 68 0.0 0 0.0 4.8 17.4 179
15/01/2020 3:00 5.7 68 0.0 0 0.0 5.4 19.4 182
15/01/2020 3:10 5.5 68 0.0 0 0.0 6.5 23.3 174
15/01/2020 3:20 5.4 69 0.0 0 0.0 5.4 19.3 174
15/01/2020 3:30 5.4 69 0.0 0 0.0 4.5 16.1 164
15/01/2020 3:40 5.3 69 0.0 0 0.0 4.8 17.4 166
15/01/2020 3:50 5.4 69 0.0 0 0.0 5.0 18.0 161
15/01/2020 4:00 5.4 69 0.0 0 0.0 4.6 16.6 148
15/01/2020 4:10 5.2 69 0.0 0 0.0 4.3 15.3 128
15/01/2020 4:20 5.4 69 0.0 0 0.0 4.1 14.8 128
15/01/2020 4:30 5.4 69 0.0 0 0.0 3.8 13.5 127
15/01/2020 4:40 5.6 69 0.0 0 0.0 3.9 14.0 122
15/01/2020 4:50 5.5 69 0.0 0 0.0 3.2 11.6 114
15/01/2020 5:00 5.5 69 0.0 0 0.0 4.1 14.7 123
15/01/2020 5:10 5.6 69 0.0 0 0.0 2.8 10.0 111
15/01/2020 5:20 5.7 69 0.0 0 0.0 3.0 10.8 113
15/01/2020 5:30 5.7 69 0.0 0 0.0 5.4 19.3 127
15/01/2020 5:40 5.9 69 0.0 0 0.0 6.1 21.9 124
15/01/2020 5:50 5.9 69 0.0 0 0.0 5.9 21.1 107
15/01/2020 6:00 5.8 69 0.0 0 0.0 6.0 21.5 115
15/01/2020 6:10 6.0 69 0.0 0 0.0 4.8 17.4 123
15/01/2020 6:20 6.0 69 0.0 0 0.0 5.2 18.8 129
15/01/2020 6:30 6.2 69 0.0 0 0.0 4.2 15.3 134
15/01/2020 6:40 6.1 69 0.0 0 0.0 4.5 16.1 133
15/01/2020 6:50 5.9 70 0.0 0 0.0 3.0 10.8 134
15/01/2020 7:00 5.8 71 0.0 0 0.0 2.1 7.6 12
15/01/2020 7:10 5.9 70 0.0 0 0.0 1.4 5.1 345
15/01/2020 7:20 5.7 71 0.0 0 0.0 1.2 4.4 69
15/01/2020 7:30 5.9 71 0.0 0 0.0 1.5 5.4 172
15/01/2020 7:40 5.9 71 0.0 0 0.0 2.2 7.7 129
15/01/2020 7:50 6.0 71 0.0 0 0.0 1.6 5.8 7
15/01/2020 8:00 6.1 71 0.0 0 0.0 2.9 10.3 249
15/01/2020 8:10 6.1 73 0.0 0 0.0 7.4 26.6 171
15/01/2020 8:20 6.3 71 0.0 0 0.0 5.4 19.4 166
15/01/2020 8:30 6.5 71 0.0 0 0.0 5.3 19.0 189
15/01/2020 8:40 6.6 71 9.4 0 0.0 7.1 25.6 195
15/01/2020 8:50 6.6 71 20.4 0 0.0 6.9 24.7 183
15/01/2020 9:00 6.9 70 21.5 0 0.0 6.6 23.9 170
15/01/2020 9:10 7.0 70 21.3 0 0.0 7.6 27.3 166
15/01/2020 9:20 7.1 70 29.5 0 0.0 7.2 26.0 164
15/01/2020 9:30 7.2 69 37.7 0 0.0 6.0 21.7 157
15/01/2020 9:40 7.5 68 36.9 0 0.0 6.3 22.5 164
15/01/2020 9:50 7.5 68 47.6 0 0.0 6.2 22.2 157
15/01/2020 10:00 7.6 67 50.0 0 0.0 4.4 16.0 142
15/01/2020 10:10 7.6 66 51.0 0 0.0 2.8 10.1 151
15/01/2020 10:20 7.9 66 50.5 0 0.0 4.7 16.8 173
15/01/2020 10:30 8.1 66 54.0 0 0.0 5.0 18.1 169
15/01/2020 10:40 7.7 67 69.9 0 0.0 7.2 25.9 176
15/01/2020 10:50 7.6 67 81.7 0 0.0 5.4 19.6 165
15/01/2020 11:00 7.6 67 57.9 0 0.0 2.0 7.3 104
15/01/2020 11:10 7.7 67 58.2 0 0.0 3.3 11.8 170
15/01/2020 11:20 7.7 67 80.8 0 0.0 4.2 15.0 163
15/01/2020 11:30 7.9 66 72.0 0 0.0 5.8 20.7 156
15/01/2020 11:40 7.9 66 68.6 0 0.0 6.8 24.4 164
15/01/2020 11:50 7.6 67 51.7 0 0.0 5.4 19.4 163
15/01/2020 12:00 7.7 67 50.3 0 0.0 5.9 21.2 173
15/01/2020 12:10 7.8 67 81.5 0 0.0 6.0 21.7 161
15/01/2020 12:20 7.9 67 67.8 0 0.0 6.2 22.2 158
15/01/2020 12:30 8.0 66 63.3 0 0.0 5.1 18.3 147
15/01/2020 12:40 8.0 67 72.9 0 0.0 4.8 17.4 163
15/01/2020 12:50 8.1 67 111.3 0 0.0 5.6 20.2 175
15/01/2020 13:00 8.3 66 139.1 0 0.0 5.1 18.2 175
15/01/2020 13:10 9.0 66 290.4 418 0.0 5.5 19.7 182
15/01/2020 13:20 10.2 62 439.9 600 0.0 6.0 21.7 182
15/01/2020 13:30 10.6 60 326.3 600 0.0 4.7 16.8 180
15/01/2020 13:40 10.4 61 234.0 360 0.0 5.7 20.5 184
15/01/2020 13:50 10.1 62 204.3 228 0.0 4.1 14.7 186
15/01/2020 14:00 10.4 60 194.3 96 0.0 2.0 7.3 221
15/01/2020 14:10 10.6 60 144.1 0 0.0 3.2 11.4 201
15/01/2020 14:20 10.3 62 115.9 0 0.0 2.7 9.8 198
15/01/2020 14:30 10.3 63 100.2 0 0.0 3.9 13.9 191
15/01/2020 14:40 10.5 62 113.6 0 0.0 2.5 9.0 189
15/01/2020 14:50 10.8 61 84.8 0 0.0 1.1 4.1 173
15/01/2020 15:00 10.7 60 128.9 0 0.0 1.2 4.2 16
15/01/2020 15:10 10.8 59 120.5 0 0.0 0.7 2.5 13
15/01/2020 15:20 11.0 59 142.7 482 0.0 0.6 2.0 29
15/01/2020 15:30 11.4 61 126.3 390 0.0 1.7 6.3 73
15/01/2020 15:40 11.3 62 145.4 600 0.0 2.0 7.2 70
15/01/2020 15:50 11.5 60 131.4 600 0.0 1.6 5.8 87
15/01/2020 16:00 11.7 58 130.0 600 0.0 1.8 6.6 166
15/01/2020 16:10 11.0 61 106.4 474 0.0 2.1 7.7 56
15/01/2020 16:20 10.4 63 52.9 78 0.0 1.1 4.0 104
15/01/2020 16:30 10.5 61 37.8 0 0.0 1.4 5.1 167
15/01/2020 16:40 10.1 63 23.1 0 0.0 1.0 3.7 79
15/01/2020 16:50 9.3 66 4.8 0 0.0 2.6 9.3 95
15/01/2020 17:00 9.0 67 0.0 0 0.0 3.0 10.7 118
15/01/2020 17:10 8.8 67 0.0 0 0.0 2.7 9.6 157
15/01/2020 17:20 8.5 69 0.0 0 0.0 2.1 7.4 120
15/01/2020 17:30 7.7 72 0.0 0 0.0 1.6 5.8 78
15/01/2020 17:40 7.7 73 0.0 0 0.0 1.6 5.8 83
15/01/2020 17:50 7.6 73 0.0 0 0.0 1.2 4.3 38
15/01/2020 18:00 7.1 75 0.0 0 0.0 1.3 4.5 40
15/01/2020 18:10 6.9 75 0.0 0 0.0 1.1 4.0 62
15/01/2020 18:20 6.1 78 0.0 0 0.0 1.4 4.9 67
15/01/2020 18:30 5.8 80 0.0 0 0.0 0.9 3.1 32
15/01/2020 18:40 5.7 80 0.0 0 0.0 0.8 2.9 69
15/01/2020 18:50 5.7 80 0.0 0 0.0 1.1 4.0 14
15/01/2020 19:00 4.7 82 0.0 0 0.0 0.7 2.4 153
15/01/2020 19:10 4.4 84 0.0 0 0.0 1.1 3.8 74
15/01/2020 19:20 4.3 85 0.0 0 0.0 0.8 3.0 62
15/01/2020 19:30 3.9 86 0.0 0 0.0 0.8 2.8 28
15/01/2020 19:40 4.0 86 0.0 0 0.0 0.8 2.8 29
15/01/2020 19:50 4.3 87 0.0 0 0.0 1.5 5.5 48
15/01/2020 20:00 4.4 86 0.0 0 0.0 1.3 4.5 58
15/01/2020 20:10 4.4 85 0.0 0 0.0 0.8 2.8 66
15/01/2020 20:20 4.4 87 0.0 0 0.0 1.0 3.7 135
15/01/2020 20:30 5.9 80 0.0 0 0.0 1.9 6.8 150
15/01/2020 20:40 5.9 78 0.0 0 0.0 1.2 4.2 57
15/01/2020 20:50 5.1 81 0.0 0 0.0 1.0 3.7 106
15/01/2020 21:00 4.8 83 0.0 0 0.0 1.9 6.7 105
15/01/2020 21:10 5.0 82 0.0 0 0.0 2.4 8.6 77
15/01/2020 21:20 3.8 86 0.0 0 0.0 1.0 3.7 13
15/01/2020 21:30 3.6 87 0.0 0 0.0 1.1 4.0 13
15/01/2020 21:40 3.6 87 0.0 0 0.0 0.7 2.7 306
15/01/2020 21:50 2.8 88 0.0 0 0.0 1.2 4.2 81
15/01/2020 22:00 2.8 90 0.0 0 0.0 1.1 3.8 349
15/01/2020 22:10 3.0 90 0.0 0 0.0 1.3 4.8 5
15/01/2020 22:20 3.0 89 0.0 0 0.0 1.5 5.3 16
15/01/2020 22:30 2.6 91 0.0 0 0.0 1.0 3.4 9
15/01/2020 22:40 3.0 90 0.0 0 0.0 0.8 3.0 359
15/01/2020 22:50 2.4 89 0.0 0 0.0 0.8 2.8 188
15/01/2020 23:00 2.0 91 0.0 0 0.0 1.4 5.0 64
15/01/2020 23:10 2.0 91 0.0 0 0.0 1.0 3.7 96
15/01/2020 23:20 2.5 92 0.0 0 0.0 1.2 4.1 34
15/01/2020 23:30 3.2 90 0.0 0 0.0 1.0 3.4 27
15/01/2020 23:40 3.2 89 0.0 0 0.0 1.3 4.7 24
15/01/2020 23:50 3.6 89 0.0 0 0.0 1.4 5.0 39
Anterior Página 1 de 1 Siguiente

NOTA: Tipo de datos según el color:
   - Valores diarios o 10 minutos correctos
   - Valores diarios calculados a partir de un número de datos 10 minutos menor que 144 y mayor que 120, o de un número de datos semihorarios menor que 48 y mayor que 40 (caso de las estaciones de Riegos de Navarra y del MARM)
   - Valores diez minutos estimados


Contacto        Enlaces        Aviso legal